»·PEaware :: N257CG L52-L88

N257CG :: L52-L88

FLIGHT INFORMATION

Flight Status: Arrived
Operator: Privately registered:
United States
More flights under this callsign
Pilot: Chris G. (23363)
Aircraft: CESSNA 172 SKYHAWK
(C172)
More flights by this aircraft type
Origin: L52 Oceano Co
United States
Destination: L88 New Cuyama
United States
More flights between these airports :: More routes between these airports
Route:
File this flight plan on PilotEdge
Remarks: CAT-1
Altitude:
(Current/Filed)
5,000ft
Speed:
(Current/Filed)
115kts
Departed: 06-Feb-19 04:56 PM
Arrived: 06-Feb-19 05:31 PM
Distance/Time
Traveled:
47nm/0:35
Distance/Time
To Go:
Arrived

Flight Plot

Page will automatically refresh every two minutes.


Map Options




Map Legend


Flown Route
Filed Route
Departure Airport
Arrival Airport
Navaid (VOR, NDB)
Fix

Horizontal Profiles

Position Reports

Time Latitude Longitude Heading Altitude Ground
Speed
06-Feb-19 16:47 35.102274 -120.622530 210 16ft 0kts
06-Feb-19 16:48 35.102274 -120.622530 210 16ft 0kts
06-Feb-19 16:49 35.102274 -120.622530 210 16ft 0kts
06-Feb-19 16:50 35.102274 -120.622530 210 16ft 0kts
06-Feb-19 16:51 35.102062 -120.622287 119 17ft 4kts
06-Feb-19 16:52 35.101349 -120.622512 213 15ft 9kts
06-Feb-19 16:53 35.100288 -120.620900 123 17ft 7kts
06-Feb-19 16:54 35.099532 -120.619379 68 17ft 0kts
06-Feb-19 16:55 35.100735 -120.620790 302 17ft 55kts
06-Feb-19 16:56 35.110973 -120.647208 278 817ft 101kts
06-Feb-19 16:57 35.129005 -120.674637 299 1709ft 105kts
06-Feb-19 16:58 35.115900 -120.685964 116 2476ft 98kts
06-Feb-19 16:59 35.109705 -120.649169 102 2393ft 110kts
06-Feb-19 17:00 35.110074 -120.610856 92 2383ft 114kts
06-Feb-19 17:01 35.106894 -120.572479 101 2373ft 113kts
06-Feb-19 17:02 35.100971 -120.534946 103 2362ft 113kts
06-Feb-19 17:03 35.094341 -120.497779 104 2584ft 102kts
06-Feb-19 17:04 35.088341 -120.464974 106 3269ft 96kts
06-Feb-19 17:05 35.081605 -120.429194 105 3397ft 117kts
06-Feb-19 17:06 35.074146 -120.389485 105 3383ft 120kts
06-Feb-19 17:07 35.066608 -120.349421 106 3367ft 120kts
06-Feb-19 17:08 35.059093 -120.309567 106 3364ft 120kts
06-Feb-19 17:09 35.052204 -120.272695 107 3909ft 93kts
06-Feb-19 17:10 35.046875 -120.244115 110 4710ft 87kts
06-Feb-19 17:11 35.041373 -120.214981 111 5392ft 89kts
06-Feb-19 17:12 35.034455 -120.178985 109 5403ft 117kts
06-Feb-19 17:13 35.027031 -120.139676 110 5487ft 113kts
06-Feb-19 17:14 35.020376 -120.104501 111 5964ft 102kts
06-Feb-19 17:15 35.013768 -120.070221 111 6285ft 112kts
06-Feb-19 17:16 35.006327 -120.031235 111 6274ft 120kts
06-Feb-19 17:17 34.998681 -119.991217 111 6250ft 121kts
06-Feb-19 17:18 34.990411 -119.948209 109 5479ft 125kts
06-Feb-19 17:19 34.983690 -119.912804 111 5360ft 86kts
06-Feb-19 17:20 34.978881 -119.887711 114 5321ft 66kts
06-Feb-19 17:21 34.974205 -119.864276 111 5322ft 98kts
06-Feb-19 17:22 34.966553 -119.824340 108 4830ft 131kts
06-Feb-19 17:23 34.958059 -119.780322 108 4307ft 131kts
06-Feb-19 17:24 34.945575 -119.740172 116 3755ft 123kts
06-Feb-19 17:25 34.931831 -119.702629 116 3061ft 110kts
06-Feb-19 17:26 34.924354 -119.681473 115 3035ft 45kts
06-Feb-19 17:27 34.918390 -119.663938 114 3050ft 66kts
06-Feb-19 17:28 34.931291 -119.664982 305 2971ft 62kts
06-Feb-19 17:29 34.940632 -119.687254 306 2169ft 50kts
06-Feb-19 17:30 34.943166 -119.690988 12 2154ft 12kts
06-Feb-19 17:31 34.943295 -119.691188 199 2154ft 0kts
06-Feb-19 17:32 34.943295 -119.691188 199 2154ft 0kts
06-Feb-19 17:33 34.943295 -119.691188 199 2154ft 0kts
06-Feb-19 17:34 34.943295 -119.691188 199 2154ft 0kts
06-Feb-19 17:35 34.943295 -119.691188 199 2154ft 0kts
06-Feb-19 17:37 34.943295 -119.691188 199 2154ft 0kts

Navigation Log

Ident Type
Flight plan parsing failed, navigation log unavailable